Time;durP1;ratioP1;P1;durP2;ratioP2;P2;SDS_P1;SDS_P2;PMS_P1;PMS_P2;Temp;Humidity;BMP_temperature;BMP_pressure;BME280_temperature;BME280_humidity;BME280_pressure;Samples;Min_cycle;Max_cycle;Signal;HPM_P1;HPM_P2
2022/10/26 00:01:09;;;;;;;21.00;3.60;;;14.70;99.90;;;;;;5015781;28;20052;-74
2022/10/26 00:03:38;;;;;;;20.90;3.10;;;14.70;99.90;;;;;;5014559;28;20046;-73
2022/10/26 00:06:11;;;;;;;23.75;3.35;;;14.70;99.90;;;;;;5015660;28;20057;-74
2022/10/26 00:08:39;;;;;;;17.00;3.00;;;14.70;99.90;;;;;;5014426;28;20055;-73
2022/10/26 00:11:07;;;;;;;27.30;3.63;;;14.70;99.90;;;;;;5015395;28;20369;-72
2022/10/26 00:13:34;;;;;;;;;;;14.80;99.90;;;;;;4998486;28;20045;-72
2022/10/26 00:16:15;;;;;;;17.80;3.08;;;14.80;99.90;;;;;;5014551;28;19921;-75
2022/10/26 00:18:43;;;;;;;24.75;3.28;;;14.80;99.90;;;;;;5018521;28;20384;-73
2022/10/26 00:21:11;;;;;;;19.13;3.10;;;14.80;99.90;;;;;;5034807;28;20056;-72
2022/10/26 00:23:39;;;;;;;21.98;3.00;;;14.80;99.90;;;;;;5033869;28;20061;-74
2022/10/26 00:26:07;;;;;;;;;;;14.80;99.90;;;;;;5035535;28;20049;-73
2022/10/26 00:28:35;;;;;;;21.60;3.25;;;14.80;99.90;;;;;;5034079;28;19921;-75
2022/10/26 00:31:08;;;;;;;16.73;2.85;;;14.80;99.90;;;;;;5034933;28;20053;-73
2022/10/26 00:33:35;;;;;;;20.38;3.25;;;14.80;99.90;;;;;;5035019;28;20045;-75
2022/10/26 00:36:03;;;;;;;21.98;3.17;;;14.90;99.90;;;;;;5033349;28;20049;-75
2022/10/26 00:38:31;;;;;;;21.83;3.15;;;14.80;99.90;;;;;;5035000;28;20041;-74
2022/10/26 00:40:58;;;;;;;18.88;3.00;;;14.90;99.90;;;;;;5035036;28;20452;-72
2022/10/26 00:43:26;;;;;;;22.30;3.22;;;14.90;99.90;;;;;;5033852;28;20042;-75
2022/10/26 00:45:56;;;;;;;16.77;2.90;;;14.90;99.90;;;;;;5034614;28;20052;-74
2022/10/26 00:48:30;;;;;;;16.40;2.80;;;14.90;99.90;;;;;;5049622;28;20368;-73
2022/10/26 00:51:01;;;;;;;22.35;3.30;;;14.90;99.90;;;;;;5034095;28;20477;-72
2022/10/26 00:53:30;;;;;;;21.05;2.92;;;14.90;99.90;;;;;;5050509;28;20048;-74
2022/10/26 00:55:58;;;;;;;17.75;3.42;;;14.90;99.90;;;;;;5033528;28;20046;-75
2022/10/26 00:58:26;;;;;;;23.45;3.10;;;14.90;99.90;;;;;;5034515;28;20511;-75
2022/10/26 01:00:54;;;;;;;21.95;3.40;;;14.90;99.90;;;;;;5035001;28;20121;-75
2022/10/26 01:03:24;;;;;;;19.58;3.35;;;14.80;99.90;;;;;;5033374;28;20049;-72
2022/10/26 01:05:55;;;;;;;22.63;3.03;;;14.80;99.90;;;;;;5033768;28;20049;-74
2022/10/26 01:08:24;;;;;;;18.58;2.72;;;14.80;99.90;;;;;;5033137;28;20049;-75
2022/10/26 01:10:51;;;;;;;15.73;2.72;;;14.80;99.90;;;;;;5038593;28;20495;-75
2022/10/26 01:13:20;;;;;;;17.20;3.05;;;14.80;99.90;;;;;;5037454;28;20061;-72
2022/10/26 01:15:50;;;;;;;;;;;14.80;99.90;;;;;;5037895;28;20049;-75
2022/10/26 01:18:41;;;;;;;20.05;2.95;;;14.80;99.90;;;;;;5037612;28;20340;-74
2022/10/26 01:21:20;;;;;;;14.73;2.88;;;14.80;99.90;;;;;;5021146;28;20050;-73
2022/10/26 01:24:07;;;;;;;16.65;2.80;;;14.80;99.90;;;;;;5036254;28;20056;-75
2022/10/26 01:27:00;;;;;;;16.55;2.95;;;14.90;99.90;;;;;;5038404;28;20052;-73
2022/10/26 01:29:54;;;;;;;19.35;2.80;;;15.00;99.90;;;;;;5036937;28;20041;-73
2022/10/26 01:32:34;;;;;;;20.30;3.10;;;14.90;99.90;;;;;;5038301;28;20045;-74
2022/10/26 01:35:15;;;;;;;15.52;3.10;;;14.90;99.90;;;;;;5037258;28;20045;-73
2022/10/26 01:37:53;;;;;;;18.42;2.90;;;14.90;99.90;;;;;;5036647;28;20052;-74
2022/10/26 01:40:35;;;;;;;15.75;2.67;;;14.90;99.90;;;;;;5038300;28;20042;-75
2022/10/26 01:43:07;;;;;;;16.50;2.95;;;14.90;99.90;;;;;;5036709;28;20483;-74
2022/10/26 01:45:38;;;;;;;21.65;3.25;;;14.80;99.90;;;;;;5037310;28;20041;-74
2022/10/26 01:48:11;;;;;;;17.10;2.75;;;14.80;99.90;;;;;;5037152;28;20068;-72
2022/10/26 01:50:40;;;;;;;17.65;3.00;;;14.80;99.90;;;;;;5037673;28;20060;-75
2022/10/26 01:53:12;;;;;;;27.48;3.70;;;14.60;99.90;;;;;;5037864;28;20045;-72
2022/10/26 01:55:47;;;;;;;21.73;3.00;;;14.70;99.90;;;;;;5036523;28;20125;-73
2022/10/26 01:58:37;;;;;;;20.55;3.17;;;14.70;99.90;;;;;;5037696;28;20049;-75
2022/10/26 02:01:32;;;;;;;19.42;2.97;;;14.70;99.90;;;;;;5038136;28;20056;-74
2022/10/26 02:04:14;;;;;;;22.65;3.28;;;14.70;99.90;;;;;;5036967;28;20381;-74
2022/10/26 02:07:03;;;;;;;20.45;3.13;;;14.70;99.90;;;;;;5037434;28;20052;-75
2022/10/26 02:09:42;;;;;;;17.00;3.20;;;14.60;99.90;;;;;;5036418;28;20056;-73
2022/10/26 02:12:25;;;;;;;21.67;3.33;;;14.60;99.90;;;;;;5037747;28;20056;-74
2022/10/26 02:15:04;;;;;;;15.82;2.88;;;14.50;99.90;;;;;;5020308;28;20060;-73
2022/10/26 02:17:59;;;;;;;21.15;3.47;;;14.60;99.90;;;;;;5034921;28;20053;-74
2022/10/26 02:20:32;;;;;;;18.50;3.70;;;14.50;99.90;;;;;;4998579;28;20072;-73
2022/10/26 02:23:04;;;;;;;19.63;3.20;;;14.60;99.90;;;;;;5016736;28;20042;-73
2022/10/26 02:25:35;;;;;;;24.27;3.40;;;14.60;99.90;;;;;;5017655;28;20053;-75
2022/10/26 02:28:11;;;;;;;23.70;3.35;;;14.60;99.90;;;;;;5017231;28;20346;-73
2022/10/26 02:30:41;;;;;;;21.52;3.45;;;14.70;99.90;;;;;;5017466;28;20357;-72
2022/10/26 02:33:11;;;;;;;20.20;3.63;;;14.70;99.90;;;;;;5017513;28;20042;-72
2022/10/26 02:35:40;;;;;;;18.88;3.00;;;14.60;99.90;;;;;;4999163;28;20049;-74
2022/10/26 02:38:11;;;;;;;20.17;3.60;;;14.70;99.90;;;;;;5017251;28;20053;-74
2022/10/26 02:40:39;;;;;;;19.48;3.20;;;14.70;99.90;;;;;;5017568;28;20069;-74
2022/10/26 02:43:08;;;;;;;;;;;14.70;99.90;;;;;;5016275;28;20050;-75
2022/10/26 02:45:49;;;;;;;22.50;3.65;;;14.70;99.90;;;;;;5000031;28;20287;-72
2022/10/26 02:48:17;;;;;;;20.42;3.30;;;14.60;99.90;;;;;;5015774;28;20054;-75
2022/10/26 02:51:03;;;;;;;26.05;4.10;;;14.60;99.90;;;;;;5016988;28;20050;-73
2022/10/26 02:53:47;;;;;;;29.52;4.00;;;14.50;99.90;;;;;;5017180;28;20042;-73
2022/10/26 02:56:21;;;;;;;25.90;3.92;;;14.50;99.90;;;;;;4998814;28;20057;-74
2022/10/26 02:58:54;;;;;;;20.88;3.80;;;14.40;99.90;;;;;;4999625;28;20045;-73
2022/10/26 03:01:22;;;;;;;16.35;3.40;;;14.40;99.90;;;;;;5016539;28;20049;-74
2022/10/26 03:03:49;;;;;;;24.52;4.35;;;14.30;99.90;;;;;;5015487;28;20037;-73
2022/10/26 03:06:22;;;;;;;26.92;4.28;;;14.30;99.90;;;;;;4999788;28;20385;-73
2022/10/26 03:08:49;;;;;;;27.33;4.07;;;14.20;99.90;;;;;;5015570;28;20373;-73
2022/10/26 03:11:17;;;;;;;23.15;3.60;;;14.30;99.90;;;;;;5016402;28;20061;-73
2022/10/26 03:13:45;;;;;;;19.88;4.30;;;14.30;99.90;;;;;;5016571;28;20050;-73
2022/10/26 03:16:12;;;;;;;27.95;4.35;;;14.20;99.90;;;;;;4998481;28;20054;-75
2022/10/26 03:18:39;;;;;;;16.77;4.13;;;14.20;99.90;;;;;;5016238;28;20054;-73
2022/10/26 03:21:07;;;;;;;25.85;4.55;;;14.20;99.90;;;;;;4999160;28;20064;-72
2022/10/26 03:23:35;;;;;;;28.15;3.88;;;14.20;99.90;;;;;;4997963;28;20054;-72
2022/10/26 03:26:02;;;;;;;21.95;3.83;;;14.20;99.90;;;;;;4999411;28;20378;-75
2022/10/26 03:28:30;;;;;;;;;;;14.30;99.90;;;;;;5015416;28;20058;-73
2022/10/26 03:30:58;;;;;;;20.48;4.30;;;14.30;99.90;;;;;;4998982;28;19928;-72
2022/10/26 03:33:25;;;;;;;25.40;4.13;;;14.30;99.90;;;;;;5015999;28;20056;-73
2022/10/26 03:35:55;;;;;;;25.60;4.25;;;14.30;99.90;;;;;;5015129;28;20053;-74
2022/10/26 03:38:23;;;;;;;24.02;4.07;;;14.20;99.90;;;;;;5016119;28;20042;-74
2022/10/26 03:40:51;;;;;;;22.98;4.40;;;14.30;99.90;;;;;;5016069;28;20125;-76
2022/10/26 03:43:18;;;;;;;31.42;5.10;;;14.30;99.90;;;;;;5014623;28;20065;-74
2022/10/26 03:45:46;;;;;;;23.52;4.22;;;14.30;99.90;;;;;;5016302;28;20042;-75
2022/10/26 03:48:13;;;;;;;23.58;4.95;;;14.30;99.90;;;;;;5014859;28;20461;-73
2022/10/26 03:50:41;;;;;;;25.13;4.57;;;14.30;99.90;;;;;;5015870;28;20045;-76
2022/10/26 03:53:08;;;;;;;25.60;5.00;;;14.30;99.90;;;;;;5015636;28;20049;-74
2022/10/26 03:55:36;;;;;;;26.33;4.45;;;14.30;99.90;;;;;;5014732;28;20045;-75
2022/10/26 03:58:03;;;;;;;32.03;5.00;;;14.30;99.90;;;;;;5015654;28;20469;-72
2022/10/26 04:00:31;;;;;;;28.02;5.07;;;14.30;99.90;;;;;;5015673;28;20057;-73
2022/10/26 04:02:59;;;;;;;23.63;4.70;;;14.30;99.90;;;;;;5014360;28;20057;-74
2022/10/26 04:05:27;;;;;;;;;;;14.30;99.90;;;;;;4999032;28;20061;-74
2022/10/26 04:07:57;;;;;;;23.27;4.65;;;14.40;99.90;;;;;;5015406;28;19928;-75
2022/10/26 04:10:26;;;;;;;23.08;4.32;;;14.50;99.90;;;;;;4997301;28;20037;-75
2022/10/26 04:12:54;;;;;;;24.70;4.38;;;14.60;99.90;;;;;;5015821;28;20049;-74
2022/10/26 04:15:22;;;;;;;26.83;4.55;;;14.70;99.90;;;;;;4997351;28;20057;-75
2022/10/26 04:17:57;;;;;;;19.05;4.15;;;14.80;99.90;;;;;;5015244;28;20376;-73
2022/10/26 04:20:26;;;;;;;18.52;3.67;;;14.90;99.90;;;;;;5015102;28;20050;-73
2022/10/26 04:23:02;;;;;;;26.35;3.97;;;15.00;99.90;;;;;;5014049;28;20053;-74
2022/10/26 04:25:30;;;;;;;29.08;4.05;;;15.10;99.90;;;;;;5015323;28;20046;-74
2022/10/26 04:28:01;;;;;;;24.75;3.88;;;15.20;99.90;;;;;;5015455;28;20368;-75
2022/10/26 04:30:29;;;;;;;25.17;4.43;;;15.20;99.90;;;;;;4996714;28;20038;-74
2022/10/26 04:32:57;;;;;;;21.27;4.15;;;15.30;99.90;;;;;;4997819;28;20376;-75
2022/10/26 04:35:25;;;;;;;26.15;3.83;;;15.40;99.90;;;;;;5014077;28;20511;-74
2022/10/26 04:38:00;;;;;;;19.73;4.07;;;15.40;99.90;;;;;;4998174;28;20485;-73
2022/10/26 04:40:28;;;;;;;24.02;3.85;;;15.40;99.90;;;;;;5015273;28;20045;-75
2022/10/26 04:42:56;;;;;;;23.20;3.50;;;15.40;99.90;;;;;;5013752;28;20046;-74
2022/10/26 04:45:23;;;;;;;19.73;3.80;;;15.50;99.90;;;;;;5015092;28;20042;-75
2022/10/26 04:48:00;;;;;;;25.15;3.70;;;15.50;99.90;;;;;;5015073;28;20365;-75
2022/10/26 04:50:28;;;;;;;16.30;3.80;;;15.60;99.90;;;;;;4996808;28;20046;-75
2022/10/26 04:52:55;;;;;;;23.15;3.80;;;15.60;99.90;;;;;;5014984;28;20488;-76
2022/10/26 04:55:23;;;;;;;20.38;3.55;;;15.60;99.90;;;;;;4996616;28;20488;-74
2022/10/26 04:57:50;;;;;;;26.27;4.10;;;15.70;99.90;;;;;;4997885;28;20046;-75
2022/10/26 05:00:23;;;;;;;20.65;4.03;;;15.70;99.90;;;;;;5015210;28;20061;-74
2022/10/26 05:02:50;;;;;;;22.42;3.65;;;15.70;99.90;;;;;;5013633;28;20400;-75
2022/10/26 05:05:18;;;;;;;16.73;3.47;;;15.80;99.90;;;;;;5015146;28;20042;-75
2022/10/26 05:07:54;;;;;;;24.80;4.00;;;15.80;99.90;;;;;;5014859;28;20062;-74
2022/10/26 05:10:23;;;;;;;22.92;3.65;;;15.80;99.90;;;;;;5013521;28;20049;-74
2022/10/26 05:12:55;;;;;;;26.98;3.60;;;15.80;99.90;;;;;;4997648;28;20054;-75
2022/10/26 05:15:22;;;;;;;20.73;3.65;;;15.80;99.90;;;;;;5013952;28;20050;-73
2022/10/26 05:18:04;;;;;;;18.63;3.95;;;15.70;99.90;;;;;;5014458;28;20053;-74
2022/10/26 05:20:33;;;;;;;23.70;3.50;;;15.60;99.90;;;;;;5014654;28;20049;-74
2022/10/26 05:23:03;;;;;;;22.63;3.47;;;15.50;99.90;;;;;;5013403;28;20571;-73
2022/10/26 05:25:33;;;;;;;21.55;4.00;;;15.40;99.90;;;;;;5014966;28;20057;-75
2022/10/26 05:28:03;;;;;;;23.00;3.58;;;15.20;99.90;;;;;;5015082;28;20042;-73
2022/10/26 05:30:31;;;;;;;29.23;3.97;;;15.10;99.90;;;;;;5013636;28;20369;-72
2022/10/26 05:33:01;;;;;;;21.60;3.67;;;15.00;99.90;;;;;;5014652;28;20465;-73
2022/10/26 05:35:29;;;;;;;23.70;3.88;;;15.00;99.90;;;;;;5013460;28;20178;-73
2022/10/26 05:37:57;;;;;;;27.50;3.47;;;14.90;99.90;;;;;;5014458;28;20069;-74
2022/10/26 05:40:25;;;;;;;23.42;3.70;;;14.90;99.90;;;;;;5014749;28;20046;-74
2022/10/26 05:42:58;;;;;;;20.88;3.60;;;14.90;99.90;;;;;;5013213;28;20042;-73
2022/10/26 05:45:25;;;;;;;20.60;3.28;;;14.90;99.90;;;;;;4997546;28;20354;-75
2022/10/26 05:47:53;;;;;;;21.60;3.80;;;14.80;99.90;;;;;;5014535;28;20046;-75
2022/10/26 05:50:26;;;;;;;18.23;3.38;;;14.80;99.90;;;;;;4997070;28;20284;-75
2022/10/26 05:52:54;;;;;;;21.40;3.07;;;14.80;99.90;;;;;;5014120;28;20393;-75
2022/10/26 05:55:22;;;;;;;;;;;14.80;99.90;;;;;;5015520;28;20283;-73
2022/10/26 05:57:50;;;;;;;19.58;3.05;;;14.80;99.90;;;;;;5017812;28;19925;-73
2022/10/26 06:00:23;;;;;;;23.98;3.63;;;14.80;99.90;;;;;;5017716;28;20049;-75
2022/10/26 06:03:21;;;;;;;16.80;2.85;;;14.80;99.90;;;;;;5016833;28;20503;-75
2022/10/26 06:05:52;;;;;;;;;;;14.80;99.90;;;;;;5001044;28;20191;-76
2022/10/26 06:08:21;;;;;;;22.52;3.20;;;14.80;99.90;;;;;;5016714;28;19926;-73
2022/10/26 06:10:50;;;;;;;21.67;2.80;;;14.90;99.90;;;;;;5017424;28;20415;-74
2022/10/26 06:13:17;;;;;;;25.42;3.35;;;14.90;99.90;;;;;;5017581;28;20487;-75
2022/10/26 06:16:06;;;;;;;21.25;2.92;;;15.00;99.90;;;;;;5016793;28;20050;-76
2022/10/26 06:19:00;;;;;;;17.40;3.22;;;15.00;99.90;;;;;;5017632;28;20468;-75
2022/10/26 06:21:48;;;;;;;25.10;3.17;;;15.00;99.90;;;;;;5016299;28;20057;-73
2022/10/26 06:24:37;;;;;;;20.42;3.10;;;15.00;99.90;;;;;;4988090;28;20369;-75
2022/10/26 06:27:11;;;;;;;16.88;3.15;;;14.90;99.90;;;;;;5017905;28;20054;-72
2022/10/26 06:30:01;;;;;;;16.23;2.47;;;14.80;99.90;;;;;;5016443;28;20057;-76
2022/10/26 06:32:29;;;;;;;21.60;3.25;;;14.80;99.90;;;;;;5000189;28;20042;-75
2022/10/26 06:35:15;;;;;;;;;;;14.90;99.90;;;;;;5017110;28;20064;-76
2022/10/26 06:37:44;;;;;;;16.10;2.78;;;14.80;99.90;;;;;;5017232;28;19921;-75
2022/10/26 06:40:14;;;;;;;20.23;3.20;;;14.80;99.90;;;;;;5017783;28;20054;-76
2022/10/26 06:42:43;;;;;;;21.52;3.00;;;14.80;99.90;;;;;;4999160;28;20050;-76
2022/10/26 06:45:13;;;;;;;;;;;14.80;99.90;;;;;;5017736;28;20057;-73
2022/10/26 06:48:09;;;;;;;19.50;2.88;;;14.70;99.90;;;;;;5016888;28;20359;-73
2022/10/26 06:50:44;;;;;;;21.63;2.83;;;14.70;99.90;;;;;;5016871;28;20053;-74
2022/10/26 06:53:16;;;;;;;22.58;3.05;;;14.80;99.90;;;;;;5000291;28;20060;-74
2022/10/26 06:55:45;;;;;;;18.48;3.17;;;14.70;99.90;;;;;;5016180;28;20065;-75
2022/10/26 06:58:27;;;;;;;21.98;2.97;;;14.80;99.90;;;;;;5016167;28;20042;-76
2022/10/26 07:00:55;;;;;;;20.45;2.85;;;14.80;99.90;;;;;;5016592;28;20361;-73
2022/10/26 07:03:23;;;;;;;16.27;2.60;;;14.90;99.90;;;;;;5015438;28;20057;-73
2022/10/26 07:05:51;;;;;;;21.98;3.15;;;15.00;99.90;;;;;;5023132;28;20082;-73
2022/10/26 07:08:18;;;;;;;24.10;3.30;;;15.00;99.90;;;;;;5035120;28;20049;-73
2022/10/26 07:10:46;;;;;;;20.60;3.03;;;15.10;99.90;;;;;;5036009;28;20376;-73
2022/10/26 07:13:13;;;;;;;21.80;3.47;;;15.00;99.90;;;;;;5035647;28;20041;-73
2022/10/26 07:15:42;;;;;;;23.30;3.05;;;15.10;99.90;;;;;;5034989;28;20060;-73
2022/10/26 07:18:09;;;;;;;28.45;3.50;;;15.00;99.90;;;;;;5035818;28;20050;-73
2022/10/26 07:20:39;;;;;;;17.75;2.80;;;15.00;99.90;;;;;;5035799;28;20054;-73
2022/10/26 07:23:11;;;;;;;26.67;3.60;;;15.00;99.90;;;;;;5034800;28;20072;-73
2022/10/26 07:25:39;;;;;;;13.95;2.92;;;15.00;99.90;;;;;;5035813;28;20045;-72
2022/10/26 07:28:09;;;;;;;;;;;15.00;99.90;;;;;;5035032;28;20046;-74
2022/10/26 07:30:38;;;;;;;22.02;2.90;;;15.00;99.90;;;;;;5035604;28;19921;-74
2022/10/26 07:33:11;;;;;;;25.52;3.35;;;15.00;99.90;;;;;;5035641;28;20364;-75
2022/10/26 07:35:38;;;;;;;25.98;3.25;;;14.90;99.90;;;;;;5034278;28;20057;-76
2022/10/26 07:38:07;;;;;;;24.52;3.08;;;14.90;99.90;;;;;;5033861;28;20041;-72
2022/10/26 07:40:35;;;;;;;26.45;2.92;;;14.90;99.90;;;;;;5034886;28;20041;-73
2022/10/26 07:43:03;;;;;;;17.48;2.95;;;14.90;99.90;;;;;;5054355;28;20452;-72
2022/10/26 07:45:31;;;;;;;20.55;3.03;;;15.00;99.90;;;;;;5035001;28;20052;-72
2022/10/26 07:47:58;;;;;;;24.02;3.30;;;15.00;99.90;;;;;;5024644;28;20385;-75
2022/10/26 07:50:26;;;;;;;27.40;3.30;;;15.10;99.90;;;;;;5019319;28;20046;-76
2022/10/26 07:52:53;;;;;;;22.67;3.13;;;15.20;99.90;;;;;;5015031;28;20365;-75
2022/10/26 07:55:21;;;;;;;23.60;2.92;;;15.30;99.90;;;;;;5014837;28;20056;-73
2022/10/26 07:57:48;;;;;;;26.55;3.60;;;15.40;99.90;;;;;;5016170;28;20049;-74
2022/10/26 08:00:21;;;;;;;22.17;2.78;;;15.40;99.90;;;;;;4999295;28;20046;-76
2022/10/26 08:02:49;;;;;;;25.67;3.03;;;15.40;99.90;;;;;;5014514;28;20046;-74
2022/10/26 08:05:16;;;;;;;22.58;3.35;;;15.50;99.90;;;;;;5015526;28;20057;-75
2022/10/26 08:07:45;;;;;;;23.20;3.13;;;15.50;99.90;;;;;;4998869;28;20053;-74
2022/10/26 08:10:14;;;;;;;19.38;3.03;;;15.60;99.90;;;;;;5014702;28;20042;-76
2022/10/26 08:12:42;;;;;;;21.10;2.88;;;15.70;99.90;;;;;;4998120;28;20045;-76
2022/10/26 08:15:11;;;;;;;25.65;3.38;;;15.80;99.90;;;;;;5014494;28;20050;-73
2022/10/26 08:17:39;;;;;;;23.38;3.38;;;15.80;99.90;;;;;;5015038;28;20061;-74
2022/10/26 08:20:07;;;;;;;17.10;3.40;;;15.80;99.90;;;;;;5015318;28;20050;-75
2022/10/26 08:22:34;;;;;;;18.38;2.83;;;15.90;99.90;;;;;;5014945;28;20292;-76
2022/10/26 08:25:02;;;;;;;20.17;3.28;;;16.00;99.90;;;;;;5015837;28;20050;-76
2022/10/26 08:27:29;;;;;;;23.08;3.05;;;16.10;99.90;;;;;;5015519;28;20046;-77
2022/10/26 08:29:57;;;;;;;22.02;3.55;;;16.10;99.90;;;;;;5014163;28;20046;-75
2022/10/26 08:32:24;;;;;;;27.27;3.50;;;16.20;99.90;;;;;;4997840;28;20049;-75
2022/10/26 08:34:52;;;;;;;28.40;3.65;;;16.40;99.90;;;;;;5014078;28;20041;-75
2022/10/26 08:37:19;;;;;;;20.85;3.15;;;16.40;99.90;;;;;;5005257;28;20053;-77
2022/10/26 08:39:47;;;;;;;22.05;3.28;;;16.50;99.90;;;;;;5024820;28;20487;-76
2022/10/26 08:42:27;;;;;;;21.50;3.60;;;16.50;99.90;;;;;;5008146;28;20042;-76
2022/10/26 08:45:20;;;;;;;21.33;3.17;;;16.60;99.90;;;;;;5013514;28;20061;-77
2022/10/26 08:48:00;;;;;;;24.38;3.63;;;16.40;99.90;;;;;;5019080;28;20045;-75
2022/10/26 08:50:44;;;;;;;27.48;3.60;;;16.60;99.90;;;;;;5033666;28;20049;-77
2022/10/26 08:53:30;;;;;;;31.27;3.55;;;16.60;99.90;;;;;;5034518;28;20072;-76
2022/10/26 08:56:11;;;;;;;28.00;3.42;;;16.50;99.90;;;;;;5033304;28;20380;-75
2022/10/26 08:58:50;;;;;;;27.02;3.63;;;16.40;99.90;;;;;;5034643;28;20053;-75
2022/10/26 09:01:18;;;;;;;25.77;3.80;;;16.30;99.90;;;;;;5034070;28;20064;-74
2022/10/26 09:03:45;;;;;;;23.02;3.63;;;16.30;99.90;;;;;;5033203;28;20133;-76
2022/10/26 09:06:42;;;;;;;23.50;3.15;;;16.30;99.90;;;;;;5034407;28;20064;-74
2022/10/26 09:09:35;;;;;;;24.70;3.45;;;16.30;99.90;;;;;;5033215;28;20503;-75
2022/10/26 09:12:30;;;;;;;26.42;3.90;;;16.40;99.90;;;;;;4977948;28;20069;-75
2022/10/26 09:15:12;;;;;;;22.40;3.72;;;16.50;99.90;;;;;;5016519;28;20060;-75
2022/10/26 09:17:54;;;;;;;22.42;3.35;;;16.60;99.90;;;;;;5034369;28;20045;-77
2022/10/26 09:20:47;;;;;;;21.05;3.35;;;16.70;99.90;;;;;;5017172;28;20480;-76
2022/10/26 09:23:52;;;;;;;23.98;3.08;;;16.80;99.90;;;;;;5033266;28;20057;-75
2022/10/26 09:26:54;;;;;;;21.33;2.88;;;16.90;99.90;;;;;;5031946;28;20064;-75
2022/10/26 09:29:33;;;;;;;17.95;2.65;;;17.00;99.90;;;;;;5003038;28;20468;-77
2022/10/26 09:32:02;;;;;;;20.77;3.20;;;17.00;99.90;;;;;;5021082;28;20072;-75
2022/10/26 09:34:45;;;;;;;24.15;3.55;;;17.00;99.90;;;;;;5038316;28;20049;-76
2022/10/26 09:37:24;;;;;;;25.67;3.80;;;17.00;99.90;;;;;;5038688;28;20060;-74
2022/10/26 09:39:54;;;;;;;21.73;3.22;;;17.10;99.90;;;;;;5038107;28;20068;-75
2022/10/26 09:42:36;;;;;;;25.05;3.47;;;17.20;99.90;;;;;;5019811;28;20045;-76
2022/10/26 09:45:30;;;;;;;22.58;3.05;;;17.20;99.90;;;;;;5037688;28;20405;-75
2022/10/26 09:48:05;;;;;;;25.88;3.55;;;17.30;99.90;;;;;;5038253;28;20057;-75
2022/10/26 09:50:37;;;;;;;21.58;3.13;;;17.30;99.90;;;;;;5038171;28;20046;-73
2022/10/26 09:53:04;;;;;;;18.05;3.42;;;17.30;99.90;;;;;;5037870;28;20050;-77
2022/10/26 09:55:38;;;;;;;21.50;3.33;;;17.40;99.90;;;;;;5019295;28;20480;-76
2022/10/26 09:58:13;;;;;;;27.27;3.72;;;17.30;99.90;;;;;;5004041;28;20060;-75
2022/10/26 10:00:41;;;;;;;24.40;3.50;;;17.40;99.90;;;;;;5038022;28;20049;-74
2022/10/26 10:03:30;;;;;;;25.00;4.00;;;17.40;99.90;;;;;;5018950;28;20384;-77
2022/10/26 10:06:18;;;;;;;22.60;3.25;;;17.50;99.90;;;;;;5037561;28;20061;-74
2022/10/26 10:09:05;;;;;;;23.08;3.33;;;17.50;99.90;;;;;;5018985;28;20472;-75
2022/10/26 10:11:39;;;;;;;21.88;3.70;;;17.50;99.90;;;;;;5020039;28;20041;-76
2022/10/26 10:14:13;;;;;;;28.58;4.05;;;17.50;99.90;;;;;;5037511;28;20069;-76
2022/10/26 10:16:50;;;;;;;20.77;3.33;;;17.60;99.90;;;;;;5036174;28;20522;-77
2022/10/26 10:19:37;;;;;;;18.00;3.25;;;17.60;99.90;;;;;;5037223;28;20053;-75
2022/10/26 10:22:17;;;;;;;24.70;3.38;;;17.70;99.90;;;;;;5036435;28;20052;-75
2022/10/26 10:24:57;;;;;;;21.95;3.47;;;17.70;99.90;;;;;;5003691;28;20045;-75
2022/10/26 10:27:25;;;;;;;31.95;4.30;;;17.70;99.90;;;;;;5037554;28;20044;-77
2022/10/26 10:29:58;;;;;;;25.80;3.97;;;17.70;99.90;;;;;;5018512;28;20049;-76
2022/10/26 10:32:31;;;;;;;25.48;3.67;;;17.70;99.90;;;;;;5037371;28;20586;-77
2022/10/26 10:35:22;;;;;;;26.42;3.88;;;17.60;99.90;;;;;;5036029;28;20068;-75
2022/10/26 10:37:51;;;;;;;21.20;3.53;;;17.60;99.90;;;;;;5019891;28;20045;-74
2022/10/26 10:40:20;;;;;;;20.35;3.47;;;17.60;99.90;;;;;;5037167;28;20050;-74
2022/10/26 10:42:49;;;;;;;18.73;3.30;;;17.60;99.90;;;;;;5035958;28;20373;-75
2022/10/26 10:45:29;;;;;;;18.17;3.20;;;17.60;99.90;;;;;;5036693;28;20041;-74
2022/10/26 10:48:14;;;;;;;19.17;3.85;;;17.60;99.90;;;;;;5036613;28;20038;-76
2022/10/26 10:50:57;;;;;;;20.38;3.20;;;17.60;99.90;;;;;;5036910;28;20041;-77
2022/10/26 10:53:52;;;;;;;18.77;3.30;;;17.60;99.90;;;;;;5036759;28;20081;-76
2022/10/26 10:56:29;;;;;;;20.50;3.38;;;17.80;99.90;;;;;;5028065;28;20049;-75
2022/10/26 10:59:15;;;;;;;17.58;3.28;;;17.90;99.90;;;;;;5036986;28;20053;-74
2022/10/26 11:02:25;;;;;;;18.58;3.20;;;18.00;99.90;;;;;;5018295;28;20472;-75
2022/10/26 11:05:30;;;;;;;21.52;3.22;;;18.10;99.90;;;;;;5019332;28;20037;-77
2022/10/26 11:08:19;;;;;;;19.23;2.88;;;18.10;99.90;;;;;;5035482;28;20452;-77
2022/10/26 11:11:12;;;;;;;27.67;3.60;;;18.20;99.90;;;;;;5035903;28;20049;-75
2022/10/26 11:14:17;;;;;;;20.35;3.28;;;17.80;99.90;;;;;;5018528;28;20045;-75
2022/10/26 11:17:01;;;;;;;18.52;3.28;;;18.20;99.90;;;;;;5034812;28;20479;-75
2022/10/26 11:19:50;;;;;;;17.65;3.25;;;18.30;99.90;;;;;;5047822;28;20053;-75
2022/10/26 11:22:23;;;;;;;23.98;3.13;;;18.40;99.90;;;;;;5054435;28;20494;-74
2022/10/26 11:25:15;;;;;;;23.60;3.28;;;18.50;99.90;;;;;;5055584;28;20052;-75
2022/10/26 11:27:54;;;;;;;21.17;3.20;;;18.50;99.90;;;;;;5054716;28;20052;-75
2022/10/26 11:30:29;;;;;;;19.15;3.40;;;18.50;99.90;;;;;;5054547;28;20052;-75
2022/10/26 11:33:25;;;;;;;23.00;3.35;;;18.60;99.90;;;;;;5055561;28;20045;-75
2022/10/26 11:36:07;;;;;;;19.00;3.10;;;18.50;99.90;;;;;;5037062;28;20361;-75
2022/10/26 11:39:15;;;;;;;20.42;3.10;;;18.50;99.90;;;;;;5055463;28;20053;-75
2022/10/26 11:42:02;;;;;;;18.23;3.17;;;18.50;99.90;;;;;;5054336;28;20044;-75
2022/10/26 11:44:40;;;;;;;20.70;3.55;;;18.50;99.90;;;;;;5054362;28;20060;-76
2022/10/26 11:47:10;;;;;;;18.52;3.10;;;18.40;99.90;;;;;;5055329;28;20045;-75
2022/10/26 11:49:50;;;;;;;17.73;3.10;;;18.40;99.90;;;;;;5053258;28;20387;-75
2022/10/26 11:52:23;;;;;;;19.40;3.22;;;18.40;99.90;;;;;;5054274;28;20052;-75
2022/10/26 11:54:55;;;;;;;18.60;3.38;;;18.40;99.90;;;;;;5054039;28;20049;-75
2022/10/26 11:57:26;;;;;;;17.48;3.15;;;18.30;99.90;;;;;;5054385;28;20368;-75
2022/10/26 12:00:11;;;;;;;22.23;3.60;;;18.30;99.90;;;;;;5054231;28;20052;-75
2022/10/26 12:02:45;;;;;;;19.00;3.53;;;18.30;99.90;;;;;;5053862;28;20053;-75
2022/10/26 12:05:26;;;;;;;19.00;3.13;;;18.30;99.90;;;;;;5054513;28;20048;-75
2022/10/26 12:07:57;;;;;;;21.23;3.63;;;18.40;99.90;;;;;;5054050;28;20060;-76
2022/10/26 12:10:34;;;;;;;16.13;3.20;;;18.40;99.90;;;;;;5052797;28;20049;-76
2022/10/26 12:13:04;;;;;;;16.63;2.92;;;18.50;99.90;;;;;;5053982;28;20044;-75
2022/10/26 12:15:40;;;;;;;17.25;3.10;;;18.50;99.90;;;;;;5053587;28;20045;-76
2022/10/26 12:18:59;;;;;;;15.15;3.15;;;18.50;99.90;;;;;;5036867;28;20057;-76
2022/10/26 12:21:29;;;;;;;26.40;3.17;;;18.50;99.90;;;;;;5053409;28;20052;-76
2022/10/26 12:24:21;;;;;;;16.90;3.13;;;18.50;99.90;;;;;;5054630;28;20049;-76
2022/10/26 12:26:53;;;;;;;22.48;3.10;;;18.50;99.90;;;;;;5053422;28;20056;-76
2022/10/26 12:29:36;;;;;;;14.88;3.10;;;18.50;99.90;;;;;;5052612;28;20045;-76
2022/10/26 12:32:24;;;;;;;17.88;3.45;;;18.50;99.90;;;;;;5054385;28;20048;-76
2022/10/26 12:34:53;;;;;;;18.73;3.30;;;18.50;99.90;;;;;;5051849;28;20048;-76
2022/10/26 12:37:37;;;;;;;22.48;3.63;;;18.50;99.90;;;;;;5054418;28;20044;-76
2022/10/26 12:40:29;;;;;;;23.48;3.63;;;18.60;99.90;;;;;;5053661;28;20053;-76
2022/10/26 12:43:17;;;;;;;22.77;3.10;;;18.60;99.90;;;;;;5052546;28;20052;-76
2022/10/26 12:46:05;;;;;;;23.23;3.72;;;18.60;99.90;;;;;;5054151;28;20045;-76
2022/10/26 12:48:42;;;;;;;16.40;3.28;;;18.60;99.90;;;;;;5052139;28;20037;-76
2022/10/26 12:51:25;;;;;;;;;;;18.60;99.90;;;;;;5053871;28;20463;-76
2022/10/26 12:53:56;;;;;;;21.90;3.25;;;18.60;99.90;;;;;;5054434;28;20267;-76
2022/10/26 12:56:37;;;;;;;24.75;3.47;;;18.60;99.90;;;;;;5052308;28;20080;-75
2022/10/26 12:59:17;;;;;;;15.93;3.25;;;18.50;99.90;;;;;;5054081;28;20056;-78
2022/10/26 13:02:02;;;;;;;27.33;3.80;;;18.50;99.90;;;;;;5052154;28;20064;-76
2022/10/26 13:05:02;;;;;;;20.92;3.90;;;18.40;99.90;;;;;;5054084;28;20103;-78
2022/10/26 13:07:37;;;;;;;24.23;3.78;;;18.40;99.90;;;;;;5057253;28;20067;-77
2022/10/26 13:10:11;;;;;;;24.05;3.83;;;18.30;99.90;;;;;;5056952;28;20056;-77
2022/10/26 13:12:41;;;;;;;25.17;4.15;;;18.20;99.90;;;;;;5057291;28;20041;-78
2022/10/26 13:15:20;;;;;;;28.08;3.95;;;18.20;99.90;;;;;;5057071;28;20045;-76
2022/10/26 13:18:09;;;;;;;24.83;4.32;;;18.20;99.90;;;;;;5054355;28;20060;-77
2022/10/26 13:21:11;;;;;;;20.55;3.75;;;18.10;99.90;;;;;;5016272;28;20042;-75